sensor_id;sensor_type;location;lat;lon;timestamp;temperature;humidity
25582;DHT22;13462;50.764;4.332;2023-07-31T00:00:14;17.10;99.90
25582;DHT22;13462;50.764;4.332;2023-07-31T00:02:40;17.20;99.90
25582;DHT22;13462;50.764;4.332;2023-07-31T00:05:07;17.10;99.90
25582;DHT22;13462;50.764;4.332;2023-07-31T00:07:33;17.20;99.90
25582;DHT22;13462;50.764;4.332;2023-07-31T00:09:59;17.20;99.90
25582;DHT22;13462;50.764;4.332;2023-07-31T00:12:24;17.10;99.90
25582;DHT22;13462;50.764;4.332;2023-07-31T00:14:50;17.20;99.90
25582;DHT22;13462;50.764;4.332;2023-07-31T00:17:17;17.20;99.90
25582;DHT22;13462;50.764;4.332;2023-07-31T00:19:43;17.20;99.90
25582;DHT22;13462;50.764;4.332;2023-07-31T00:22:11;17.20;99.90
25582;DHT22;13462;50.764;4.332;2023-07-31T00:24:37;17.30;99.90
25582;DHT22;13462;50.764;4.332;2023-07-31T00:27:02;17.30;99.90
25582;DHT22;13462;50.764;4.332;2023-07-31T00:29:28;17.40;99.90
25582;DHT22;13462;50.764;4.332;2023-07-31T00:31:54;17.30;99.90
25582;DHT22;13462;50.764;4.332;2023-07-31T00:34:19;17.30;99.90
25582;DHT22;13462;50.764;4.332;2023-07-31T00:36:45;17.40;99.90
25582;DHT22;13462;50.764;4.332;2023-07-31T00:39:10;17.30;99.90
25582;DHT22;13462;50.764;4.332;2023-07-31T00:41:36;17.40;99.90
25582;DHT22;13462;50.764;4.332;2023-07-31T00:44:01;17.30;99.90
25582;DHT22;13462;50.764;4.332;2023-07-31T00:46:27;17.30;99.90
25582;DHT22;13462;50.764;4.332;2023-07-31T00:48:52;17.30;99.90
25582;DHT22;13462;50.764;4.332;2023-07-31T00:51:18;17.30;99.90
25582;DHT22;13462;50.764;4.332;2023-07-31T00:53:44;17.30;99.90
25582;DHT22;13462;50.764;4.332;2023-07-31T00:56:11;17.30;99.90
25582;DHT22;13462;50.764;4.332;2023-07-31T00:58:37;17.20;99.90
25582;DHT22;13462;50.764;4.332;2023-07-31T01:01:02;17.20;99.90
25582;DHT22;13462;50.764;4.332;2023-07-31T01:03:28;17.20;99.90
25582;DHT22;13462;50.764;4.332;2023-07-31T01:11:30;17.20;99.90
25582;DHT22;13462;50.764;4.332;2023-07-31T01:13:56;17.20;99.90
25582;DHT22;13462;50.764;4.332;2023-07-31T01:16:22;17.20;99.90
25582;DHT22;13462;50.764;4.332;2023-07-31T01:18:48;17.20;99.90
25582;DHT22;13462;50.764;4.332;2023-07-31T01:21:30;17.20;99.90
25582;DHT22;13462;50.764;4.332;2023-07-31T01:26:38;17.10;99.90
25582;DHT22;13462;50.764;4.332;2023-07-31T01:29:12;17.10;99.90
25582;DHT22;13462;50.764;4.332;2023-07-31T01:31:42;17.10;99.90
25582;DHT22;13462;50.764;4.332;2023-07-31T01:34:12;17.20;99.90
25582;DHT22;13462;50.764;4.332;2023-07-31T01:36:39;17.10;99.90
25582;DHT22;13462;50.764;4.332;2023-07-31T01:39:04;17.10;99.90
25582;DHT22;13462;50.764;4.332;2023-07-31T01:41:30;17.10;99.90
25582;DHT22;13462;50.764;4.332;2023-07-31T01:43:55;17.10;99.90
25582;DHT22;13462;50.764;4.332;2023-07-31T01:46:21;17.10;99.90
25582;DHT22;13462;50.764;4.332;2023-07-31T01:48:47;17.10;99.90
25582;DHT22;13462;50.764;4.332;2023-07-31T01:51:12;17.10;99.90
25582;DHT22;13462;50.764;4.332;2023-07-31T01:53:38;17.10;99.90
25582;DHT22;13462;50.764;4.332;2023-07-31T01:56:04;17.10;99.90
25582;DHT22;13462;50.764;4.332;2023-07-31T01:58:30;17.20;99.90
25582;DHT22;13462;50.764;4.332;2023-07-31T02:00:55;17.20;99.90
25582;DHT22;13462;50.764;4.332;2023-07-31T02:03:21;17.10;99.90
25582;DHT22;13462;50.764;4.332;2023-07-31T02:05:48;17.10;99.90
25582;DHT22;13462;50.764;4.332;2023-07-31T02:08:14;17.10;99.90
25582;DHT22;13462;50.764;4.332;2023-07-31T02:10:40;17.00;99.90
25582;DHT22;13462;50.764;4.332;2023-07-31T02:13:06;17.10;99.90
25582;DHT22;13462;50.764;4.332;2023-07-31T02:15:33;17.00;99.90
25582;DHT22;13462;50.764;4.332;2023-07-31T02:17:59;17.10;99.90
25582;DHT22;13462;50.764;4.332;2023-07-31T02:20:24;17.20;99.90
25582;DHT22;13462;50.764;4.332;2023-07-31T02:22:50;17.10;99.90
25582;DHT22;13462;50.764;4.332;2023-07-31T02:25:15;17.10;99.90
25582;DHT22;13462;50.764;4.332;2023-07-31T02:27:41;17.20;99.90
25582;DHT22;13462;50.764;4.332;2023-07-31T02:30:07;17.10;99.90
25582;DHT22;13462;50.764;4.332;2023-07-31T02:32:33;17.00;99.90
25582;DHT22;13462;50.764;4.332;2023-07-31T02:34:58;17.00;99.90
25582;DHT22;13462;50.764;4.332;2023-07-31T02:37:25;17.00;99.90
25582;DHT22;13462;50.764;4.332;2023-07-31T02:39:50;17.00;99.90
25582;DHT22;13462;50.764;4.332;2023-07-31T02:42:16;16.90;99.90
25582;DHT22;13462;50.764;4.332;2023-07-31T02:44:42;17.00;99.90
25582;DHT22;13462;50.764;4.332;2023-07-31T02:47:07;17.00;99.90
25582;DHT22;13462;50.764;4.332;2023-07-31T02:49:33;17.00;99.90
25582;DHT22;13462;50.764;4.332;2023-07-31T02:51:59;17.10;99.90
25582;DHT22;13462;50.764;4.332;2023-07-31T02:54:24;17.00;99.90
25582;DHT22;13462;50.764;4.332;2023-07-31T02:56:50;17.00;99.90
25582;DHT22;13462;50.764;4.332;2023-07-31T02:59:16;17.00;99.90
25582;DHT22;13462;50.764;4.332;2023-07-31T03:01:41;16.90;99.90
25582;DHT22;13462;50.764;4.332;2023-07-31T03:04:07;16.90;99.90
25582;DHT22;13462;50.764;4.332;2023-07-31T03:06:33;17.00;99.90
25582;DHT22;13462;50.764;4.332;2023-07-31T03:08:58;17.00;99.90
25582;DHT22;13462;50.764;4.332;2023-07-31T03:11:24;17.00;99.90
25582;DHT22;13462;50.764;4.332;2023-07-31T03:13:49;17.00;99.90
25582;DHT22;13462;50.764;4.332;2023-07-31T03:16:15;17.00;99.90
25582;DHT22;13462;50.764;4.332;2023-07-31T03:18:40;17.00;99.90
25582;DHT22;13462;50.764;4.332;2023-07-31T03:21:06;17.00;99.90
25582;DHT22;13462;50.764;4.332;2023-07-31T03:23:31;17.10;99.90
25582;DHT22;13462;50.764;4.332;2023-07-31T03:25:59;17.10;99.90
25582;DHT22;13462;50.764;4.332;2023-07-31T03:28:25;17.10;99.90
25582;DHT22;13462;50.764;4.332;2023-07-31T03:30:51;17.20;99.90
25582;DHT22;13462;50.764;4.332;2023-07-31T03:33:17;17.10;99.90
25582;DHT22;13462;50.764;4.332;2023-07-31T03:35:42;17.20;99.90
25582;DHT22;13462;50.764;4.332;2023-07-31T03:38:08;17.10;99.90
25582;DHT22;13462;50.764;4.332;2023-07-31T03:40:34;17.10;99.90
25582;DHT22;13462;50.764;4.332;2023-07-31T03:42:59;17.10;99.90
25582;DHT22;13462;50.764;4.332;2023-07-31T03:45:25;17.00;99.90
25582;DHT22;13462;50.764;4.332;2023-07-31T03:47:50;16.90;99.90
25582;DHT22;13462;50.764;4.332;2023-07-31T03:50:16;16.90;99.90
25582;DHT22;13462;50.764;4.332;2023-07-31T03:52:42;16.90;99.90
25582;DHT22;13462;50.764;4.332;2023-07-31T03:55:07;16.90;99.90
25582;DHT22;13462;50.764;4.332;2023-07-31T03:57:33;16.90;99.90
25582;DHT22;13462;50.764;4.332;2023-07-31T03:59:59;17.00;99.90
25582;DHT22;13462;50.764;4.332;2023-07-31T04:02:24;16.90;99.90
25582;DHT22;13462;50.764;4.332;2023-07-31T04:04:50;16.90;99.90
25582;DHT22;13462;50.764;4.332;2023-07-31T04:07:16;16.90;99.90
25582;DHT22;13462;50.764;4.332;2023-07-31T04:09:41;16.90;99.90
25582;DHT22;13462;50.764;4.332;2023-07-31T04:12:07;16.90;99.90
25582;DHT22;13462;50.764;4.332;2023-07-31T04:14:32;16.90;99.90
25582;DHT22;13462;50.764;4.332;2023-07-31T04:16:58;16.90;99.90
25582;DHT22;13462;50.764;4.332;2023-07-31T04:19:24;17.00;99.90
25582;DHT22;13462;50.764;4.332;2023-07-31T04:21:50;16.90;99.90
25582;DHT22;13462;50.764;4.332;2023-07-31T04:24:15;17.00;99.90
25582;DHT22;13462;50.764;4.332;2023-07-31T04:26:41;17.00;99.90
25582;DHT22;13462;50.764;4.332;2023-07-31T04:29:06;17.00;99.90
25582;DHT22;13462;50.764;4.332;2023-07-31T04:31:33;16.90;99.90
25582;DHT22;13462;50.764;4.332;2023-07-31T04:33:59;17.00;99.90
25582;DHT22;13462;50.764;4.332;2023-07-31T04:36:24;16.90;99.90
25582;DHT22;13462;50.764;4.332;2023-07-31T04:38:50;17.00;99.90
25582;DHT22;13462;50.764;4.332;2023-07-31T04:41:16;16.90;99.90
25582;DHT22;13462;50.764;4.332;2023-07-31T04:43:41;17.00;99.90
25582;DHT22;13462;50.764;4.332;2023-07-31T04:46:07;17.00;99.90
25582;DHT22;13462;50.764;4.332;2023-07-31T04:48:32;17.00;99.90
25582;DHT22;13462;50.764;4.332;2023-07-31T04:50:58;17.00;99.90
25582;DHT22;13462;50.764;4.332;2023-07-31T04:53:23;17.00;99.90
25582;DHT22;13462;50.764;4.332;2023-07-31T04:55:49;16.90;99.90
25582;DHT22;13462;50.764;4.332;2023-07-31T04:58:15;16.90;99.90
25582;DHT22;13462;50.764;4.332;2023-07-31T05:00:40;16.90;99.90
25582;DHT22;13462;50.764;4.332;2023-07-31T05:03:06;16.80;99.90
25582;DHT22;13462;50.764;4.332;2023-07-31T05:05:32;16.70;99.90
25582;DHT22;13462;50.764;4.332;2023-07-31T05:07:58;16.70;99.90
25582;DHT22;13462;50.764;4.332;2023-07-31T05:10:24;16.70;99.90
25582;DHT22;13462;50.764;4.332;2023-07-31T05:12:49;16.60;99.90
25582;DHT22;13462;50.764;4.332;2023-07-31T05:15:15;16.50;99.90
25582;DHT22;13462;50.764;4.332;2023-07-31T05:17:40;16.50;99.90
25582;DHT22;13462;50.764;4.332;2023-07-31T05:20:06;16.50;99.90
25582;DHT22;13462;50.764;4.332;2023-07-31T05:22:32;16.40;99.90
25582;DHT22;13462;50.764;4.332;2023-07-31T05:24:58;16.40;99.90
25582;DHT22;13462;50.764;4.332;2023-07-31T05:27:23;16.40;99.90
25582;DHT22;13462;50.764;4.332;2023-07-31T05:29:49;16.40;99.90
25582;DHT22;13462;50.764;4.332;2023-07-31T05:32:14;16.40;99.90
25582;DHT22;13462;50.764;4.332;2023-07-31T05:34:40;16.40;99.90
25582;DHT22;13462;50.764;4.332;2023-07-31T05:37:06;16.40;99.90
25582;DHT22;13462;50.764;4.332;2023-07-31T05:39:31;16.30;99.90
25582;DHT22;13462;50.764;4.332;2023-07-31T05:41:57;16.30;99.90
25582;DHT22;13462;50.764;4.332;2023-07-31T05:44:22;16.30;99.90
25582;DHT22;13462;50.764;4.332;2023-07-31T05:46:48;16.20;99.90
25582;DHT22;13462;50.764;4.332;2023-07-31T05:49:14;16.20;99.90
25582;DHT22;13462;50.764;4.332;2023-07-31T05:51:39;16.20;99.90
25582;DHT22;13462;50.764;4.332;2023-07-31T05:54:05;16.30;99.90
25582;DHT22;13462;50.764;4.332;2023-07-31T05:56:30;16.30;99.90
25582;DHT22;13462;50.764;4.332;2023-07-31T05:58:57;16.20;99.90
25582;DHT22;13462;50.764;4.332;2023-07-31T06:01:22;16.10;99.90
25582;DHT22;13462;50.764;4.332;2023-07-31T06:03:48;16.20;99.90
25582;DHT22;13462;50.764;4.332;2023-07-31T06:06:13;16.20;99.90
25582;DHT22;13462;50.764;4.332;2023-07-31T06:08:39;16.30;99.90
25582;DHT22;13462;50.764;4.332;2023-07-31T06:11:05;16.40;99.90
25582;DHT22;13462;50.764;4.332;2023-07-31T06:13:31;16.30;99.90
25582;DHT22;13462;50.764;4.332;2023-07-31T06:15:57;16.30;99.90
25582;DHT22;13462;50.764;4.332;2023-07-31T06:18:24;16.30;99.90
25582;DHT22;13462;50.764;4.332;2023-07-31T06:20:50;16.30;99.90
25582;DHT22;13462;50.764;4.332;2023-07-31T06:23:19;16.30;99.90
25582;DHT22;13462;50.764;4.332;2023-07-31T06:25:45;16.40;99.90
25582;DHT22;13462;50.764;4.332;2023-07-31T06:28:10;16.40;99.90
25582;DHT22;13462;50.764;4.332;2023-07-31T06:30:36;16.40;99.90
25582;DHT22;13462;50.764;4.332;2023-07-31T06:33:01;16.40;99.90
25582;DHT22;13462;50.764;4.332;2023-07-31T06:35:27;16.50;99.90
25582;DHT22;13462;50.764;4.332;2023-07-31T06:37:52;16.50;99.90
25582;DHT22;13462;50.764;4.332;2023-07-31T06:40:18;16.50;99.90
25582;DHT22;13462;50.764;4.332;2023-07-31T06:42:44;16.50;99.90
25582;DHT22;13462;50.764;4.332;2023-07-31T06:45:10;16.60;99.90
25582;DHT22;13462;50.764;4.332;2023-07-31T06:47:36;16.50;99.90
25582;DHT22;13462;50.764;4.332;2023-07-31T06:50:02;16.60;99.90
25582;DHT22;13462;50.764;4.332;2023-07-31T06:52:27;16.60;99.90
25582;DHT22;13462;50.764;4.332;2023-07-31T06:55:03;16.70;99.90
25582;DHT22;13462;50.764;4.332;2023-07-31T06:57:29;16.80;99.90
25582;DHT22;13462;50.764;4.332;2023-07-31T06:59:55;16.80;99.90
25582;DHT22;13462;50.764;4.332;2023-07-31T07:02:20;17.00;99.90
25582;DHT22;13462;50.764;4.332;2023-07-31T07:04:46;17.10;99.90
25582;DHT22;13462;50.764;4.332;2023-07-31T07:07:11;17.30;99.90
25582;DHT22;13462;50.764;4.332;2023-07-31T07:09:37;17.30;99.90
25582;DHT22;13462;50.764;4.332;2023-07-31T07:12:02;17.50;99.90
25582;DHT22;13462;50.764;4.332;2023-07-31T07:14:28;17.50;99.90
25582;DHT22;13462;50.764;4.332;2023-07-31T07:16:54;17.40;99.90
25582;DHT22;13462;50.764;4.332;2023-07-31T07:19:19;17.40;99.90
25582;DHT22;13462;50.764;4.332;2023-07-31T07:21:45;17.40;99.90
25582;DHT22;13462;50.764;4.332;2023-07-31T07:24:10;17.40;99.90
25582;DHT22;13462;50.764;4.332;2023-07-31T07:26:36;17.40;99.90
25582;DHT22;13462;50.764;4.332;2023-07-31T07:29:01;17.40;99.90
25582;DHT22;13462;50.764;4.332;2023-07-31T07:31:28;17.40;99.90
25582;DHT22;13462;50.764;4.332;2023-07-31T07:33:54;17.50;99.90
25582;DHT22;13462;50.764;4.332;2023-07-31T07:36:19;17.40;99.90
25582;DHT22;13462;50.764;4.332;2023-07-31T07:38:45;17.50;99.90
25582;DHT22;13462;50.764;4.332;2023-07-31T07:41:10;17.40;99.90
25582;DHT22;13462;50.764;4.332;2023-07-31T07:43:36;17.40;99.90
25582;DHT22;13462;50.764;4.332;2023-07-31T07:46:01;17.50;99.90
25582;DHT22;13462;50.764;4.332;2023-07-31T07:48:27;17.50;99.90
25582;DHT22;13462;50.764;4.332;2023-07-31T07:50:53;17.50;99.90
25582;DHT22;13462;50.764;4.332;2023-07-31T07:53:18;17.40;99.90
25582;DHT22;13462;50.764;4.332;2023-07-31T07:55:44;17.40;99.90
25582;DHT22;13462;50.764;4.332;2023-07-31T07:58:09;17.40;99.90
25582;DHT22;13462;50.764;4.332;2023-07-31T08:00:35;17.40;99.90
25582;DHT22;13462;50.764;4.332;2023-07-31T08:03:00;17.60;99.90
25582;DHT22;13462;50.764;4.332;2023-07-31T08:05:26;17.60;99.90
25582;DHT22;13462;50.764;4.332;2023-07-31T08:07:52;17.50;99.90
25582;DHT22;13462;50.764;4.332;2023-07-31T08:10:17;17.30;99.90
25582;DHT22;13462;50.764;4.332;2023-07-31T08:12:43;17.20;99.90
25582;DHT22;13462;50.764;4.332;2023-07-31T08:15:09;17.30;99.90
25582;DHT22;13462;50.764;4.332;2023-07-31T08:17:34;17.40;99.90
25582;DHT22;13462;50.764;4.332;2023-07-31T08:20:00;17.50;99.90
25582;DHT22;13462;50.764;4.332;2023-07-31T08:22:25;17.70;99.90
25582;DHT22;13462;50.764;4.332;2023-07-31T08:24:51;17.60;99.90
25582;DHT22;13462;50.764;4.332;2023-07-31T08:27:16;17.40;99.90
25582;DHT22;13462;50.764;4.332;2023-07-31T08:29:42;17.20;99.90
25582;DHT22;13462;50.764;4.332;2023-07-31T08:32:07;17.20;99.90
25582;DHT22;13462;50.764;4.332;2023-07-31T08:34:33;17.10;99.90
25582;DHT22;13462;50.764;4.332;2023-07-31T08:36:59;17.20;99.90
25582;DHT22;13462;50.764;4.332;2023-07-31T08:39:24;17.30;99.90
25582;DHT22;13462;50.764;4.332;2023-07-31T08:41:50;17.40;99.90
25582;DHT22;13462;50.764;4.332;2023-07-31T08:44:16;17.40;99.90
25582;DHT22;13462;50.764;4.332;2023-07-31T08:46:43;17.50;99.90
25582;DHT22;13462;50.764;4.332;2023-07-31T08:49:09;17.40;99.90
25582;DHT22;13462;50.764;4.332;2023-07-31T08:51:36;17.40;99.90
25582;DHT22;13462;50.764;4.332;2023-07-31T08:54:02;17.40;99.90
25582;DHT22;13462;50.764;4.332;2023-07-31T08:56:32;17.50;99.90
25582;DHT22;13462;50.764;4.332;2023-07-31T08:58:59;17.60;99.90
25582;DHT22;13462;50.764;4.332;2023-07-31T09:01:29;17.50;99.90
25582;DHT22;13462;50.764;4.332;2023-07-31T09:03:55;17.40;99.90
25582;DHT22;13462;50.764;4.332;2023-07-31T09:06:23;17.40;99.90
25582;DHT22;13462;50.764;4.332;2023-07-31T09:08:50;17.40;99.90
25582;DHT22;13462;50.764;4.332;2023-07-31T09:11:16;17.60;99.90
25582;DHT22;13462;50.764;4.332;2023-07-31T09:13:42;17.70;99.90
25582;DHT22;13462;50.764;4.332;2023-07-31T09:16:08;17.70;99.90
25582;DHT22;13462;50.764;4.332;2023-07-31T09:18:56;17.90;99.90
25582;DHT22;13462;50.764;4.332;2023-07-31T09:21:23;18.10;99.90
25582;DHT22;13462;50.764;4.332;2023-07-31T09:23:49;18.00;99.90
25582;DHT22;13462;50.764;4.332;2023-07-31T09:26:35;18.10;99.90
25582;DHT22;13462;50.764;4.332;2023-07-31T09:29:04;18.30;99.90
25582;DHT22;13462;50.764;4.332;2023-07-31T09:31:41;18.30;99.90
25582;DHT22;13462;50.764;4.332;2023-07-31T09:34:07;18.20;99.90
25582;DHT22;13462;50.764;4.332;2023-07-31T09:36:32;18.20;99.90
25582;DHT22;13462;50.764;4.332;2023-07-31T09:39:04;18.10;99.90
25582;DHT22;13462;50.764;4.332;2023-07-31T09:41:30;18.00;99.90
25582;DHT22;13462;50.764;4.332;2023-07-31T09:43:56;17.80;99.90
25582;DHT22;13462;50.764;4.332;2023-07-31T09:46:22;17.70;99.90
25582;DHT22;13462;50.764;4.332;2023-07-31T09:48:47;17.80;99.90
25582;DHT22;13462;50.764;4.332;2023-07-31T09:51:13;17.80;99.90
25582;DHT22;13462;50.764;4.332;2023-07-31T09:53:39;17.90;99.90
25582;DHT22;13462;50.764;4.332;2023-07-31T09:56:05;17.80;99.90
25582;DHT22;13462;50.764;4.332;2023-07-31T09:58:34;17.90;99.90
25582;DHT22;13462;50.764;4.332;2023-07-31T10:01:02;18.10;99.90
25582;DHT22;13462;50.764;4.332;2023-07-31T10:03:29;18.00;99.90
25582;DHT22;13462;50.764;4.332;2023-07-31T10:05:56;18.00;99.90
25582;DHT22;13462;50.764;4.332;2023-07-31T10:08:28;18.00;99.90
25582;DHT22;13462;50.764;4.332;2023-07-31T10:10:59;18.00;99.90
25582;DHT22;13462;50.764;4.332;2023-07-31T10:13:25;18.10;99.90
25582;DHT22;13462;50.764;4.332;2023-07-31T10:15:53;18.10;99.90
25582;DHT22;13462;50.764;4.332;2023-07-31T10:18:20;18.10;99.90
25582;DHT22;13462;50.764;4.332;2023-07-31T10:20:46;18.20;99.90
25582;DHT22;13462;50.764;4.332;2023-07-31T10:23:12;18.30;99.90
25582;DHT22;13462;50.764;4.332;2023-07-31T10:25:38;18.50;99.90
25582;DHT22;13462;50.764;4.332;2023-07-31T10:28:04;18.70;99.90
25582;DHT22;13462;50.764;4.332;2023-07-31T10:30:32;18.90;99.90
25582;DHT22;13462;50.764;4.332;2023-07-31T10:32:59;19.10;99.90
25582;DHT22;13462;50.764;4.332;2023-07-31T10:35:25;19.00;99.90
25582;DHT22;13462;50.764;4.332;2023-07-31T10:37:51;19.10;99.90
25582;DHT22;13462;50.764;4.332;2023-07-31T10:40:27;19.00;99.90
25582;DHT22;13462;50.764;4.332;2023-07-31T10:42:53;19.00;99.90
25582;DHT22;13462;50.764;4.332;2023-07-31T10:45:36;18.90;99.90
25582;DHT22;13462;50.764;4.332;2023-07-31T10:48:03;18.70;99.90
25582;DHT22;13462;50.764;4.332;2023-07-31T10:50:31;18.70;99.90
25582;DHT22;13462;50.764;4.332;2023-07-31T10:52:58;18.60;99.90
25582;DHT22;13462;50.764;4.332;2023-07-31T10:55:33;18.60;99.90
25582;DHT22;13462;50.764;4.332;2023-07-31T10:58:10;18.60;99.90
25582;DHT22;13462;50.764;4.332;2023-07-31T11:00:43;18.70;99.90
25582;DHT22;13462;50.764;4.332;2023-07-31T11:03:12;18.80;99.90
25582;DHT22;13462;50.764;4.332;2023-07-31T11:08:26;19.00;99.90
25582;DHT22;13462;50.764;4.332;2023-07-31T11:11:06;19.10;99.90
25582;DHT22;13462;50.764;4.332;2023-07-31T11:13:34;19.00;99.90
25582;DHT22;13462;50.764;4.332;2023-07-31T11:16:00;19.00;99.90
25582;DHT22;13462;50.764;4.332;2023-07-31T11:18:26;19.00;99.90
25582;DHT22;13462;50.764;4.332;2023-07-31T11:20:53;19.00;99.90
25582;DHT22;13462;50.764;4.332;2023-07-31T11:23:19;19.00;99.90
25582;DHT22;13462;50.764;4.332;2023-07-31T11:25:45;19.10;99.90
25582;DHT22;13462;50.764;4.332;2023-07-31T11:28:13;19.10;99.90
25582;DHT22;13462;50.764;4.332;2023-07-31T11:30:40;19.10;99.90
25582;DHT22;13462;50.764;4.332;2023-07-31T11:33:10;19.30;99.90
25582;DHT22;13462;50.764;4.332;2023-07-31T11:35:44;19.50;99.90
25582;DHT22;13462;50.764;4.332;2023-07-31T11:38:12;19.50;99.90
25582;DHT22;13462;50.764;4.332;2023-07-31T11:40:42;19.40;99.90
25582;DHT22;13462;50.764;4.332;2023-07-31T11:43:08;19.30;99.90
25582;DHT22;13462;50.764;4.332;2023-07-31T11:45:33;19.20;99.90
25582;DHT22;13462;50.764;4.332;2023-07-31T11:48:01;19.20;99.90
25582;DHT22;13462;50.764;4.332;2023-07-31T11:50:27;19.20;99.90
25582;DHT22;13462;50.764;4.332;2023-07-31T11:53:00;19.40;99.90
25582;DHT22;13462;50.764;4.332;2023-07-31T11:55:28;19.50;99.90
25582;DHT22;13462;50.764;4.332;2023-07-31T11:57:57;19.80;99.90
25582;DHT22;13462;50.764;4.332;2023-07-31T12:00:23;19.70;99.90
25582;DHT22;13462;50.764;4.332;2023-07-31T12:02:50;19.90;99.90
25582;DHT22;13462;50.764;4.332;2023-07-31T12:05:16;20.20;99.90
25582;DHT22;13462;50.764;4.332;2023-07-31T12:07:50;20.30;99.90
25582;DHT22;13462;50.764;4.332;2023-07-31T12:10:23;20.30;99.90
25582;DHT22;13462;50.764;4.332;2023-07-31T12:13:07;20.20;99.90
25582;DHT22;13462;50.764;4.332;2023-07-31T12:15:34;20.30;99.90
25582;DHT22;13462;50.764;4.332;2023-07-31T12:18:03;20.20;99.90
25582;DHT22;13462;50.764;4.332;2023-07-31T12:20:30;20.10;99.90
25582;DHT22;13462;50.764;4.332;2023-07-31T12:22:56;20.10;99.90
25582;DHT22;13462;50.764;4.332;2023-07-31T12:25:28;20.10;99.90
25582;DHT22;13462;50.764;4.332;2023-07-31T12:27:54;20.10;99.90
25582;DHT22;13462;50.764;4.332;2023-07-31T12:30:33;20.20;99.90
25582;DHT22;13462;50.764;4.332;2023-07-31T12:33:07;20.20;99.90
25582;DHT22;13462;50.764;4.332;2023-07-31T12:35:38;20.10;99.90
25582;DHT22;13462;50.764;4.332;2023-07-31T12:38:05;20.10;99.90
25582;DHT22;13462;50.764;4.332;2023-07-31T12:40:31;20.20;99.90
25582;DHT22;13462;50.764;4.332;2023-07-31T12:42:57;20.10;99.90
25582;DHT22;13462;50.764;4.332;2023-07-31T12:45:22;20.20;99.90
25582;DHT22;13462;50.764;4.332;2023-07-31T12:47:48;20.30;99.90
25582;DHT22;13462;50.764;4.332;2023-07-31T12:50:14;20.50;99.90
25582;DHT22;13462;50.764;4.332;2023-07-31T12:52:40;20.30;99.90
25582;DHT22;13462;50.764;4.332;2023-07-31T12:55:08;20.00;99.90
25582;DHT22;13462;50.764;4.332;2023-07-31T12:57:36;19.80;99.90
25582;DHT22;13462;50.764;4.332;2023-07-31T13:00:02;19.70;99.90
25582;DHT22;13462;50.764;4.332;2023-07-31T13:02:28;19.50;99.90
25582;DHT22;13462;50.764;4.332;2023-07-31T13:04:53;19.30;99.90
25582;DHT22;13462;50.764;4.332;2023-07-31T13:07:19;19.40;99.90
25582;DHT22;13462;50.764;4.332;2023-07-31T13:09:45;19.50;99.90
25582;DHT22;13462;50.764;4.332;2023-07-31T13:12:13;19.30;99.90
25582;DHT22;13462;50.764;4.332;2023-07-31T13:14:39;19.20;99.90
25582;DHT22;13462;50.764;4.332;2023-07-31T13:17:05;19.10;99.90
25582;DHT22;13462;50.764;4.332;2023-07-31T13:19:30;18.70;99.90
25582;DHT22;13462;50.764;4.332;2023-07-31T13:21:56;18.60;99.90
25582;DHT22;13462;50.764;4.332;2023-07-31T13:24:21;18.60;99.90
25582;DHT22;13462;50.764;4.332;2023-07-31T13:26:47;18.40;99.90
25582;DHT22;13462;50.764;4.332;2023-07-31T13:29:13;18.20;99.90
25582;DHT22;13462;50.764;4.332;2023-07-31T13:31:38;18.20;99.90
25582;DHT22;13462;50.764;4.332;2023-07-31T13:34:04;18.10;99.90
25582;DHT22;13462;50.764;4.332;2023-07-31T13:36:29;18.20;99.90
25582;DHT22;13462;50.764;4.332;2023-07-31T13:38:55;18.10;99.90
25582;DHT22;13462;50.764;4.332;2023-07-31T13:41:20;18.00;99.90
25582;DHT22;13462;50.764;4.332;2023-07-31T13:43:46;17.90;99.90
25582;DHT22;13462;50.764;4.332;2023-07-31T13:46:11;17.90;99.90
25582;DHT22;13462;50.764;4.332;2023-07-31T13:48:37;17.90;99.90
25582;DHT22;13462;50.764;4.332;2023-07-31T13:51:03;17.90;99.90
25582;DHT22;13462;50.764;4.332;2023-07-31T13:53:29;18.00;99.90
25582;DHT22;13462;50.764;4.332;2023-07-31T13:55:54;17.90;99.90
25582;DHT22;13462;50.764;4.332;2023-07-31T13:58:20;17.90;99.90
25582;DHT22;13462;50.764;4.332;2023-07-31T14:00:46;18.00;99.90
25582;DHT22;13462;50.764;4.332;2023-07-31T14:03:12;18.00;99.90
25582;DHT22;13462;50.764;4.332;2023-07-31T14:05:37;17.90;99.90
25582;DHT22;13462;50.764;4.332;2023-07-31T14:08:03;17.90;99.90
25582;DHT22;13462;50.764;4.332;2023-07-31T14:10:29;17.90;99.90
25582;DHT22;13462;50.764;4.332;2023-07-31T14:12:54;17.80;99.90
25582;DHT22;13462;50.764;4.332;2023-07-31T14:15:20;18.00;99.90
25582;DHT22;13462;50.764;4.332;2023-07-31T14:17:45;17.90;99.90
25582;DHT22;13462;50.764;4.332;2023-07-31T14:20:11;18.00;99.90
25582;DHT22;13462;50.764;4.332;2023-07-31T14:22:37;18.10;99.90
25582;DHT22;13462;50.764;4.332;2023-07-31T14:25:03;18.00;99.90
25582;DHT22;13462;50.764;4.332;2023-07-31T14:27:29;18.00;99.90
25582;DHT22;13462;50.764;4.332;2023-07-31T14:29:54;18.00;99.90
25582;DHT22;13462;50.764;4.332;2023-07-31T14:32:21;18.00;99.90
25582;DHT22;13462;50.764;4.332;2023-07-31T14:34:48;18.00;99.90
25582;DHT22;13462;50.764;4.332;2023-07-31T14:37:14;18.00;99.90
25582;DHT22;13462;50.764;4.332;2023-07-31T14:39:39;18.00;99.90
25582;DHT22;13462;50.764;4.332;2023-07-31T14:42:05;18.00;99.90
25582;DHT22;13462;50.764;4.332;2023-07-31T14:44:31;18.00;99.90
25582;DHT22;13462;50.764;4.332;2023-07-31T14:46:56;18.00;99.90
25582;DHT22;13462;50.764;4.332;2023-07-31T14:49:23;18.00;99.90
25582;DHT22;13462;50.764;4.332;2023-07-31T14:51:49;18.00;99.90
25582;DHT22;13462;50.764;4.332;2023-07-31T14:54:14;18.00;99.90
25582;DHT22;13462;50.764;4.332;2023-07-31T14:56:40;18.10;99.90
25582;DHT22;13462;50.764;4.332;2023-07-31T14:59:05;18.00;99.90
25582;DHT22;13462;50.764;4.332;2023-07-31T15:01:33;18.00;99.90
25582;DHT22;13462;50.764;4.332;2023-07-31T15:03:59;18.00;99.90
25582;DHT22;13462;50.764;4.332;2023-07-31T15:06:24;18.00;99.90
25582;DHT22;13462;50.764;4.332;2023-07-31T15:08:50;18.00;99.90
25582;DHT22;13462;50.764;4.332;2023-07-31T15:11:15;17.90;99.90
25582;DHT22;13462;50.764;4.332;2023-07-31T15:13:41;17.90;99.90
25582;DHT22;13462;50.764;4.332;2023-07-31T15:16:07;17.90;99.90
25582;DHT22;13462;50.764;4.332;2023-07-31T15:18:32;17.90;99.90
25582;DHT22;13462;50.764;4.332;2023-07-31T15:20:58;17.80;99.90
25582;DHT22;13462;50.764;4.332;2023-07-31T15:23:23;17.80;99.90
25582;DHT22;13462;50.764;4.332;2023-07-31T15:25:51;17.90;99.90
25582;DHT22;13462;50.764;4.332;2023-07-31T15:28:18;17.80;99.90
25582;DHT22;13462;50.764;4.332;2023-07-31T15:30:44;17.80;99.90
25582;DHT22;13462;50.764;4.332;2023-07-31T15:33:09;17.80;99.90
25582;DHT22;13462;50.764;4.332;2023-07-31T15:35:35;17.80;99.90